Bookmark and Share
Track history (hours):
 

Lister

Last reported at 2014-Apr-23 08:33 UTC. Time now 2014-Apr-23 13:09 UTC.
Position N 56°05' E 015°04'.

Length 89 m; draft 5.8 m.

Type: Ship. MMSI: 236381000.

NotesDate/timePositionNaut miles runAvg speedWind from/ knotsBaromVisibWave heightAir tempDewpointWater temp
2014-Apr-23 08:33N 56°05' E 015°04'1211.9
2014-Apr-23 07:33N 56°03' E 015°25'1211.9
2014-Apr-23 06:33N 55°60' E 015°46'1211.5
2014-Apr-23 05:33N 56°01' E 016°06'1211.8
2014-Apr-23 04:32N 56°04' E 016°27'29911.4
2014-Apr-22 02:25N 59°34' E 023°06'1011.7
2014-Apr-22 01:33N 59°37' E 023°25'1110.9
2014-Apr-22 00:33N 59°36' E 023°46'1311.6
2014-Apr-21 23:24N 59°32' E 024°11'1011.6
2014-Apr-21 22:32N 59°30' E 024°31'3 2.6
2014-Apr-21 21:33N 59°29' E 024°35'2 2.5
2014-Apr-21 20:34N 59°30' E 024°31'10 9.9
2014-Apr-21 19:33N 59°40' E 024°29'1212.0
2014-Apr-21 18:34N 59°48' E 024°45'2411.7
2014-Apr-21 16:33N 59°54' E 025°31'2511.8
2014-Apr-21 14:25N 59°59' E 026°19'1011.5
2014-Apr-21 13:34N 60°01' E 026°39'  
2014-Apr-18 21:24N 59°60' E 026°41'6410.9
2014-Apr-18 15:33N 59°45' E 024°38'1711.4
2014-Apr-18 14:06N 59°41' E 024°06'611.5
2014-Apr-18 13:33N 59°39' E 023°54'1111.5
2014-Apr-18 12:33N 59°36' E 023°32'1111.4
2014-Apr-18 11:33N 59°32' E 023°11'  
2014-Apr-15 22:28N 59°20' E 017°31'  

Dump ship's entire track history

sailing weather and tide predictions

Lister — ZDHW6 — position and weather